sensor_id;sensor_type;location;lat;lon;timestamp;pressure;altitude;pressure_sealevel;temperature;humidity
14134;BME280;7147;59.364;18.018;2022-09-09T00:01:51;101805.72;;;11.26;100.00
14134;BME280;7147;59.364;18.018;2022-09-09T00:04:26;101806.59;;;11.27;100.00
14134;BME280;7147;59.364;18.018;2022-09-09T00:07:00;101798.75;;;11.38;100.00
14134;BME280;7147;59.364;18.018;2022-09-09T00:09:35;101795.94;;;11.46;100.00
14134;BME280;7147;59.364;18.018;2022-09-09T00:12:11;101796.72;;;11.55;100.00
14134;BME280;7147;59.364;18.018;2022-09-09T00:14:47;101795.13;;;11.60;100.00
14134;BME280;7147;59.364;18.018;2022-09-09T00:17:29;101784.31;;;11.59;100.00
14134;BME280;7147;59.364;18.018;2022-09-09T00:20:03;101804.72;;;11.72;100.00
14134;BME280;7147;59.364;18.018;2022-09-09T00:22:41;101794.84;;;11.78;100.00
14134;BME280;7147;59.364;18.018;2022-09-09T00:25:13;101786.56;;;11.78;100.00
14134;BME280;7147;59.364;18.018;2022-09-09T00:27:45;101786.69;;;11.85;100.00
14134;BME280;7147;59.364;18.018;2022-09-09T00:30:16;101796.31;;;11.89;100.00
14134;BME280;7147;59.364;18.018;2022-09-09T00:32:47;101796.22;;;11.97;100.00
14134;BME280;7147;59.364;18.018;2022-09-09T00:35:18;101788.44;;;12.00;100.00
14134;BME280;7147;59.364;18.018;2022-09-09T00:37:49;101791.09;;;12.08;100.00
14134;BME280;7147;59.364;18.018;2022-09-09T00:40:23;101790.06;;;12.09;100.00
14134;BME280;7147;59.364;18.018;2022-09-09T00:42:58;101789.69;;;12.12;100.00
14134;BME280;7147;59.364;18.018;2022-09-09T00:45:52;101796.75;;;12.15;100.00
14134;BME280;7147;59.364;18.018;2022-09-09T00:48:30;101788.56;;;12.21;100.00
14134;BME280;7147;59.364;18.018;2022-09-09T00:51:05;101785.91;;;12.28;100.00
14134;BME280;7147;59.364;18.018;2022-09-09T00:53:39;101779.72;;;12.26;100.00
14134;BME280;7147;59.364;18.018;2022-09-09T00:56:13;101763.75;;;12.21;100.00
14134;BME280;7147;59.364;18.018;2022-09-09T00:58:42;101773.66;;;12.30;100.00
14134;BME280;7147;59.364;18.018;2022-09-09T01:01:11;101776.41;;;12.45;100.00
14134;BME280;7147;59.364;18.018;2022-09-09T01:03:43;101773.66;;;12.45;100.00
14134;BME280;7147;59.364;18.018;2022-09-09T01:06:21;101768.28;;;12.44;100.00
14134;BME280;7147;59.364;18.018;2022-09-09T01:09:10;101774.69;;;12.44;100.00
14134;BME280;7147;59.364;18.018;2022-09-09T01:11:49;101777.34;;;12.52;100.00
14134;BME280;7147;59.364;18.018;2022-09-09T01:14:30;101773.66;;;12.45;100.00
14134;BME280;7147;59.364;18.018;2022-09-09T01:17:03;101775.63;;;12.51;100.00
14134;BME280;7147;59.364;18.018;2022-09-09T01:19:45;101763.09;;;12.49;100.00
14134;BME280;7147;59.364;18.018;2022-09-09T01:22:24;101762.38;;;12.61;100.00
14134;BME280;7147;59.364;18.018;2022-09-09T01:25:18;101767.53;;;12.64;100.00
14134;BME280;7147;59.364;18.018;2022-09-09T01:27:48;101749.72;;;12.52;100.00
14134;BME280;7147;59.364;18.018;2022-09-09T01:30:17;101761.13;;;12.64;100.00
14134;BME280;7147;59.364;18.018;2022-09-09T01:32:46;101760.56;;;12.68;100.00
14134;BME280;7147;59.364;18.018;2022-09-09T01:35:22;101752.09;;;12.70;100.00
14134;BME280;7147;59.364;18.018;2022-09-09T01:37:53;101748.94;;;12.73;100.00
14134;BME280;7147;59.364;18.018;2022-09-09T01:40:20;101753.91;;;12.77;100.00
14134;BME280;7147;59.364;18.018;2022-09-09T01:42:48;101755.41;;;12.80;100.00
14134;BME280;7147;59.364;18.018;2022-09-09T01:45:15;101758.66;;;12.83;100.00
14134;BME280;7147;59.364;18.018;2022-09-09T01:47:43;101763.31;;;12.83;100.00
14134;BME280;7147;59.364;18.018;2022-09-09T01:50:12;101756.75;;;12.84;100.00
14134;BME280;7147;59.364;18.018;2022-09-09T01:52:41;101753.91;;;12.77;100.00
14134;BME280;7147;59.364;18.018;2022-09-09T01:55:09;101752.00;;;12.78;100.00
14134;BME280;7147;59.364;18.018;2022-09-09T01:57:40;101750.94;;;12.79;100.00
14134;BME280;7147;59.364;18.018;2022-09-09T02:00:13;101747.13;;;12.80;100.00
14134;BME280;7147;59.364;18.018;2022-09-09T02:02:48;101748.16;;;12.79;100.00
14134;BME280;7147;59.364;18.018;2022-09-09T02:05:27;101744.16;;;12.81;100.00
14134;BME280;7147;59.364;18.018;2022-09-09T02:08:01;101742.06;;;12.83;100.00
14134;BME280;7147;59.364;18.018;2022-09-09T02:10:32;101735.69;;;12.83;100.00
14134;BME280;7147;59.364;18.018;2022-09-09T02:13:04;101736.72;;;12.82;100.00
14134;BME280;7147;59.364;18.018;2022-09-09T02:15:39;101730.56;;;12.80;100.00
14134;BME280;7147;59.364;18.018;2022-09-09T02:18:10;101734.91;;;12.89;100.00
14134;BME280;7147;59.364;18.018;2022-09-09T02:20:39;101734.06;;;12.88;100.00
14134;BME280;7147;59.364;18.018;2022-09-09T02:23:07;101727.94;;;12.93;100.00
14134;BME280;7147;59.364;18.018;2022-09-09T02:25:36;101728.16;;;12.92;100.00
14134;BME280;7147;59.364;18.018;2022-09-09T02:28:06;101723.09;;;12.95;100.00
14134;BME280;7147;59.364;18.018;2022-09-09T02:30:37;101723.16;;;13.02;100.00
14134;BME280;7147;59.364;18.018;2022-09-09T02:33:07;101722.78;;;13.05;100.00
14134;BME280;7147;59.364;18.018;2022-09-09T02:35:36;101720.03;;;13.05;100.00
14134;BME280;7147;59.364;18.018;2022-09-09T02:38:10;101722.78;;;13.05;100.00
14134;BME280;7147;59.364;18.018;2022-09-09T02:40:38;101718.75;;;13.07;100.00
14134;BME280;7147;59.364;18.018;2022-09-09T02:43:05;101718.19;;;13.12;100.00
14134;BME280;7147;59.364;18.018;2022-09-09T02:45:38;101714.56;;;13.11;100.00
14134;BME280;7147;59.364;18.018;2022-09-09T02:48:14;101717.41;;;13.18;100.00
14134;BME280;7147;59.364;18.018;2022-09-09T02:50:47;101714.47;;;13.19;100.00
14134;BME280;7147;59.364;18.018;2022-09-09T02:53:22;101716.63;;;13.24;100.00
14134;BME280;7147;59.364;18.018;2022-09-09T02:55:55;101723.47;;;13.28;100.00
14134;BME280;7147;59.364;18.018;2022-09-09T02:58:26;101711.56;;;13.27;100.00
14134;BME280;7147;59.364;18.018;2022-09-09T03:00:54;101708.53;;;13.22;100.00
14134;BME280;7147;59.364;18.018;2022-09-09T03:03:23;101694.50;;;13.24;100.00
14134;BME280;7147;59.364;18.018;2022-09-09T03:05:51;101699.56;;;13.20;100.00
14134;BME280;7147;59.364;18.018;2022-09-09T03:08:17;101698.31;;;13.23;100.00
14134;BME280;7147;59.364;18.018;2022-09-09T03:10:44;101703.75;;;13.31;100.00
14134;BME280;7147;59.364;18.018;2022-09-09T03:13:11;101697.13;;;13.32;100.00
14134;BME280;7147;59.364;18.018;2022-09-09T03:15:40;101702.66;;;13.32;100.00
14134;BME280;7147;59.364;18.018;2022-09-09T03:18:08;101696.09;;;13.33;100.00
14134;BME280;7147;59.364;18.018;2022-09-09T03:20:35;101685.50;;;13.36;100.00
14134;BME280;7147;59.364;18.018;2022-09-09T03:23:02;101686.88;;;13.26;100.00
14134;BME280;7147;59.364;18.018;2022-09-09T03:25:29;101687.97;;;13.31;100.00
14134;BME280;7147;59.364;18.018;2022-09-09T03:27:57;101679.66;;;13.25;100.00
14134;BME280;7147;59.364;18.018;2022-09-09T03:30:25;101687.66;;;13.20;100.00
14134;BME280;7147;59.364;18.018;2022-09-09T03:32:53;101686.63;;;13.21;100.00
14134;BME280;7147;59.364;18.018;2022-09-09T03:35:22;101671.53;;;13.23;100.00
14134;BME280;7147;59.364;18.018;2022-09-09T03:37:49;101682.19;;;13.26;100.00
14134;BME280;7147;59.364;18.018;2022-09-09T03:40:16;101679.91;;;13.30;100.00
14134;BME280;7147;59.364;18.018;2022-09-09T03:42:44;101672.47;;;13.30;100.00
14134;BME280;7147;59.364;18.018;2022-09-09T03:45:11;101675.03;;;13.32;100.00
14134;BME280;7147;59.364;18.018;2022-09-09T03:47:38;101683.13;;;13.33;100.00
14134;BME280;7147;59.364;18.018;2022-09-09T03:50:09;101677.13;;;13.30;100.00
14134;BME280;7147;59.364;18.018;2022-09-09T03:52:39;101673.34;;;13.31;100.00
14134;BME280;7147;59.364;18.018;2022-09-09T03:55:08;101670.34;;;13.32;100.00
14134;BME280;7147;59.364;18.018;2022-09-09T03:57:35;101651.94;;;13.18;100.00
14134;BME280;7147;59.364;18.018;2022-09-09T04:00:03;101673.38;;;13.37;100.00
14134;BME280;7147;59.364;18.018;2022-09-09T04:02:30;101668.69;;;13.38;100.00
14134;BME280;7147;59.364;18.018;2022-09-09T04:04:58;101664.66;;;13.34;100.00
14134;BME280;7147;59.364;18.018;2022-09-09T04:07:25;101666.63;;;13.40;100.00
14134;BME280;7147;59.364;18.018;2022-09-09T04:09:55;101657.13;;;13.49;100.00
14134;BME280;7147;59.364;18.018;2022-09-09T04:12:22;101665.81;;;13.46;100.00
14134;BME280;7147;59.364;18.018;2022-09-09T04:14:49;101662.03;;;13.54;100.00
14134;BME280;7147;59.364;18.018;2022-09-09T04:17:16;101650.13;;;13.53;100.00
14134;BME280;7147;59.364;18.018;2022-09-09T04:19:43;101661.88;;;13.62;100.00
14134;BME280;7147;59.364;18.018;2022-09-09T04:22:10;101665.25;;;13.57;100.00
14134;BME280;7147;59.364;18.018;2022-09-09T04:24:37;101665.91;;;13.59;100.00
14134;BME280;7147;59.364;18.018;2022-09-09T04:27:05;101664.66;;;13.62;100.00
14134;BME280;7147;59.364;18.018;2022-09-09T04:29:32;101668.88;;;13.58;100.00
14134;BME280;7147;59.364;18.018;2022-09-09T04:32:00;101657.44;;;13.61;100.00
14134;BME280;7147;59.364;18.018;2022-09-09T04:34:27;101649.94;;;13.61;100.00
14134;BME280;7147;59.364;18.018;2022-09-09T04:36:54;101658.38;;;13.74;100.00
14134;BME280;7147;59.364;18.018;2022-09-09T04:39:22;101666.03;;;13.79;100.00
14134;BME280;7147;59.364;18.018;2022-09-09T04:41:49;101663.09;;;13.80;100.00
14134;BME280;7147;59.364;18.018;2022-09-09T04:44:17;101664.59;;;13.83;100.00
14134;BME280;7147;59.364;18.018;2022-09-09T04:46:44;101664.81;;;13.88;100.00
14134;BME280;7147;59.364;18.018;2022-09-09T04:49:11;101672.31;;;13.87;100.00
14134;BME280;7147;59.364;18.018;2022-09-09T04:51:37;101667.19;;;13.91;100.00
14134;BME280;7147;59.364;18.018;2022-09-09T04:54:04;101663.63;;;13.97;100.00
14134;BME280;7147;59.364;18.018;2022-09-09T04:56:32;101663.84;;;13.95;100.00
14134;BME280;7147;59.364;18.018;2022-09-09T04:58:59;101665.13;;;13.99;100.00
14134;BME280;7147;59.364;18.018;2022-09-09T05:01:29;101665.38;;;14.05;100.00
14134;BME280;7147;59.364;18.018;2022-09-09T05:03:57;101668.38;;;14.10;100.00
14134;BME280;7147;59.364;18.018;2022-09-09T05:06:24;101678.00;;;14.14;100.00
14134;BME280;7147;59.364;18.018;2022-09-09T05:08:51;101671.84;;;14.18;100.00
14134;BME280;7147;59.364;18.018;2022-09-09T05:11:19;101662.84;;;14.10;100.00
14134;BME280;7147;59.364;18.018;2022-09-09T05:13:49;101668.88;;;14.26;100.00
14134;BME280;7147;59.364;18.018;2022-09-09T05:16:17;101670.59;;;14.27;100.00
14134;BME280;7147;59.364;18.018;2022-09-09T05:18:45;101676.22;;;14.34;100.00
14134;BME280;7147;59.364;18.018;2022-09-09T05:21:14;101666.63;;;14.36;100.00
14134;BME280;7147;59.364;18.018;2022-09-09T05:23:44;101672.84;;;14.45;100.00
14134;BME280;7147;59.364;18.018;2022-09-09T05:26:13;101678.00;;;14.55;100.00
14134;BME280;7147;59.364;18.018;2022-09-09T05:28:40;101672.75;;;14.73;100.00
14134;BME280;7147;59.364;18.018;2022-09-09T05:31:09;101674.69;;;14.79;100.00
14134;BME280;7147;59.364;18.018;2022-09-09T05:33:38;101680.28;;;14.98;100.00
14134;BME280;7147;59.364;18.018;2022-09-09T05:36:09;101682.84;;;15.06;100.00
14134;BME280;7147;59.364;18.018;2022-09-09T05:38:39;101688.41;;;15.06;100.00
14134;BME280;7147;59.364;18.018;2022-09-09T05:41:07;101681.34;;;15.04;100.00
14134;BME280;7147;59.364;18.018;2022-09-09T05:43:34;101685.19;;;15.09;100.00
14134;BME280;7147;59.364;18.018;2022-09-09T05:46:04;101692.28;;;15.25;100.00
14134;BME280;7147;59.364;18.018;2022-09-09T05:48:32;101688.72;;;15.57;100.00
14134;BME280;7147;59.364;18.018;2022-09-09T05:51:00;101691.91;;;15.48;100.00
14134;BME280;7147;59.364;18.018;2022-09-09T05:53:30;101685.88;;;15.31;100.00
14134;BME280;7147;59.364;18.018;2022-09-09T05:56:00;101682.47;;;15.29;100.00
14134;BME280;7147;59.364;18.018;2022-09-09T05:58:29;101690.34;;;15.39;99.79
14134;BME280;7147;59.364;18.018;2022-09-09T06:01:04;101676.72;;;15.37;98.83
14134;BME280;7147;59.364;18.018;2022-09-09T06:03:32;101692.34;;;15.51;97.92
14134;BME280;7147;59.364;18.018;2022-09-09T06:06:00;101688.50;;;15.52;97.25
14134;BME280;7147;59.364;18.018;2022-09-09T06:08:28;101693.19;;;15.52;95.54
14134;BME280;7147;59.364;18.018;2022-09-09T06:11:01;101697.88;;;15.58;94.61
14134;BME280;7147;59.364;18.018;2022-09-09T06:13:29;101694.47;;;15.49;92.56
14134;BME280;7147;59.364;18.018;2022-09-09T06:15:56;101688.69;;;15.51;91.67
14134;BME280;7147;59.364;18.018;2022-09-09T06:18:24;101693.56;;;15.42;91.13
14134;BME280;7147;59.364;18.018;2022-09-09T06:20:58;101696.13;;;15.37;90.48
14134;BME280;7147;59.364;18.018;2022-09-09T06:23:26;101696.78;;;15.39;90.88
14134;BME280;7147;59.364;18.018;2022-09-09T06:26:02;101692.75;;;15.48;90.35
14134;BME280;7147;59.364;18.018;2022-09-09T06:28:31;101689.09;;;15.35;90.14
14134;BME280;7147;59.364;18.018;2022-09-09T06:30:58;101675.63;;;15.19;89.58
14134;BME280;7147;59.364;18.018;2022-09-09T06:33:26;101691.84;;;15.22;89.08
14134;BME280;7147;59.364;18.018;2022-09-09T06:35:53;101680.75;;;15.22;89.22
14134;BME280;7147;59.364;18.018;2022-09-09T06:38:22;101687.59;;;15.26;89.18
14134;BME280;7147;59.364;18.018;2022-09-09T06:40:52;101696.34;;;15.36;89.66
14134;BME280;7147;59.364;18.018;2022-09-09T06:43:22;101701.47;;;15.45;88.84
14134;BME280;7147;59.364;18.018;2022-09-09T06:45:54;101690.13;;;15.27;88.87
14134;BME280;7147;59.364;18.018;2022-09-09T06:48:21;101692.72;;;15.29;88.84
14134;BME280;7147;59.364;18.018;2022-09-09T06:50:48;101695.06;;;15.25;88.90
14134;BME280;7147;59.364;18.018;2022-09-09T06:53:16;101702.72;;;15.17;90.25
14134;BME280;7147;59.364;18.018;2022-09-09T06:55:45;101703.38;;;15.32;89.28
14134;BME280;7147;59.364;18.018;2022-09-09T06:58:12;101701.88;;;15.36;89.61
14134;BME280;7147;59.364;18.018;2022-09-09T07:00:40;101696.75;;;15.33;90.83
14134;BME280;7147;59.364;18.018;2022-09-09T07:03:07;101704.88;;;15.34;89.43
14134;BME280;7147;59.364;18.018;2022-09-09T07:05:34;101706.59;;;15.29;89.13
14134;BME280;7147;59.364;18.018;2022-09-09T07:08:01;101703.59;;;15.37;88.72
14134;BME280;7147;59.364;18.018;2022-09-09T07:10:28;101704.44;;;15.31;87.58
14134;BME280;7147;59.364;18.018;2022-09-09T07:12:54;101703.81;;;15.29;88.01
14134;BME280;7147;59.364;18.018;2022-09-09T07:15:21;101709.34;;;15.42;86.09
14134;BME280;7147;59.364;18.018;2022-09-09T07:17:53;101707.00;;;15.45;85.31
14134;BME280;7147;59.364;18.018;2022-09-09T07:20:20;101700.66;;;15.58;82.12
14134;BME280;7147;59.364;18.018;2022-09-09T07:22:46;101705.13;;;15.72;82.16
14134;BME280;7147;59.364;18.018;2022-09-09T07:25:13;101712.63;;;15.85;81.08
14134;BME280;7147;59.364;18.018;2022-09-09T07:27:43;101722.66;;;15.79;80.60
14134;BME280;7147;59.364;18.018;2022-09-09T07:30:11;101719.22;;;15.77;81.20
14134;BME280;7147;59.364;18.018;2022-09-09T07:32:38;101708.34;;;15.69;79.77
14134;BME280;7147;59.364;18.018;2022-09-09T07:35:07;101723.28;;;15.81;79.24
14134;BME280;7147;59.364;18.018;2022-09-09T07:37:36;101715.78;;;15.95;78.92
14134;BME280;7147;59.364;18.018;2022-09-09T07:40:03;101701.84;;;16.21;77.20
14134;BME280;7147;59.364;18.018;2022-09-09T07:42:30;101711.41;;;16.45;76.09
14134;BME280;7147;59.364;18.018;2022-09-09T07:45:00;101712.91;;;16.54;75.13
14134;BME280;7147;59.364;18.018;2022-09-09T07:47:27;101705.84;;;16.64;75.71
14134;BME280;7147;59.364;18.018;2022-09-09T07:49:53;101714.50;;;16.88;74.58
14134;BME280;7147;59.364;18.018;2022-09-09T07:52:22;101710.66;;;16.82;74.11
14134;BME280;7147;59.364;18.018;2022-09-09T07:54:49;101709.22;;;16.73;74.69
14134;BME280;7147;59.364;18.018;2022-09-09T07:57:17;101698.13;;;16.60;76.85
14134;BME280;7147;59.364;18.018;2022-09-09T07:59:44;101721.28;;;16.34;78.33
14134;BME280;7147;59.364;18.018;2022-09-09T08:02:11;101719.22;;;15.97;80.40
14134;BME280;7147;59.364;18.018;2022-09-09T08:04:38;101721.78;;;15.85;81.53
14134;BME280;7147;59.364;18.018;2022-09-09T08:07:05;101728.81;;;15.94;82.72
14134;BME280;7147;59.364;18.018;2022-09-09T08:09:33;101717.03;;;16.25;80.37
14134;BME280;7147;59.364;18.018;2022-09-09T08:12:00;101722.94;;;16.42;79.61
14134;BME280;7147;59.364;18.018;2022-09-09T08:14:28;101726.59;;;16.42;78.98
14134;BME280;7147;59.364;18.018;2022-09-09T08:16:55;101732.38;;;16.47;78.19
14134;BME280;7147;59.364;18.018;2022-09-09T08:19:22;101739.44;;;16.37;78.63
14134;BME280;7147;59.364;18.018;2022-09-09T08:21:50;101735.19;;;16.28;79.40
14134;BME280;7147;59.364;18.018;2022-09-09T08:24:16;101741.81;;;16.27;79.68
14134;BME280;7147;59.364;18.018;2022-09-09T08:26:47;101740.53;;;16.23;80.44
14134;BME280;7147;59.364;18.018;2022-09-09T08:29:15;101737.50;;;16.44;80.14
14134;BME280;7147;59.364;18.018;2022-09-09T08:31:43;101748.81;;;16.55;80.14
14134;BME280;7147;59.364;18.018;2022-09-09T08:34:11;101737.81;;;16.80;79.34
14134;BME280;7147;59.364;18.018;2022-09-09T08:36:39;101745.88;;;16.95;79.16
14134;BME280;7147;59.364;18.018;2022-09-09T08:39:08;101739.84;;;17.04;78.11
14134;BME280;7147;59.364;18.018;2022-09-09T08:41:55;101740.53;;;16.93;77.90
14134;BME280;7147;59.364;18.018;2022-09-09T08:44:34;101750.72;;;16.61;78.12
14134;BME280;7147;59.364;18.018;2022-09-09T08:47:11;101742.19;;;16.43;76.70
14134;BME280;7147;59.364;18.018;2022-09-09T08:49:58;101737.94;;;16.28;76.89
14134;BME280;7147;59.364;18.018;2022-09-09T08:52:30;101739.03;;;16.27;78.25
14134;BME280;7147;59.364;18.018;2022-09-09T08:55:03;101744.59;;;16.27;79.58
14134;BME280;7147;59.364;18.018;2022-09-09T08:57:39;101735.41;;;16.19;80.54
14134;BME280;7147;59.364;18.018;2022-09-09T09:00:09;101731.34;;;16.29;81.14
14134;BME280;7147;59.364;18.018;2022-09-09T09:02:42;101737.91;;;16.54;80.43
14134;BME280;7147;59.364;18.018;2022-09-09T09:05:19;101733.13;;;16.74;80.01
14134;BME280;7147;59.364;18.018;2022-09-09T09:07:57;101739.19;;;16.58;80.08
14134;BME280;7147;59.364;18.018;2022-09-09T09:10:37;101737.25;;;16.52;79.70
14134;BME280;7147;59.364;18.018;2022-09-09T09:13:12;101748.31;;;16.78;79.42
14134;BME280;7147;59.364;18.018;2022-09-09T09:15:42;101735.53;;;17.15;77.58
14134;BME280;7147;59.364;18.018;2022-09-09T09:18:12;101741.56;;;17.05;75.64
14134;BME280;7147;59.364;18.018;2022-09-09T09:20:47;101743.72;;;17.03;74.63
14134;BME280;7147;59.364;18.018;2022-09-09T09:23:21;101742.34;;;17.12;75.10
14134;BME280;7147;59.364;18.018;2022-09-09T09:25:50;101744.59;;;16.97;76.18
14134;BME280;7147;59.364;18.018;2022-09-09T09:28:23;101717.97;;;16.77;77.11
14134;BME280;7147;59.364;18.018;2022-09-09T09:30:54;101720.66;;;16.96;76.94
14134;BME280;7147;59.364;18.018;2022-09-09T09:33:26;101744.34;;;17.05;77.27
14134;BME280;7147;59.364;18.018;2022-09-09T09:35:55;101744.31;;;17.12;77.85
14134;BME280;7147;59.364;18.018;2022-09-09T09:38:25;101737.31;;;16.96;78.13
14134;BME280;7147;59.364;18.018;2022-09-09T09:40:54;101738.53;;;17.07;78.06
14134;BME280;7147;59.364;18.018;2022-09-09T09:43:27;101728.81;;;16.91;76.26
14134;BME280;7147;59.364;18.018;2022-09-09T09:45:55;101733.28;;;16.92;77.27
14134;BME280;7147;59.364;18.018;2022-09-09T09:48:23;101727.91;;;16.97;77.48
14134;BME280;7147;59.364;18.018;2022-09-09T09:50:53;101731.22;;;16.74;77.52
14134;BME280;7147;59.364;18.018;2022-09-09T09:53:23;101729.72;;;16.79;77.25
14134;BME280;7147;59.364;18.018;2022-09-09T09:55:56;101716.91;;;16.71;77.40
14134;BME280;7147;59.364;18.018;2022-09-09T09:58:25;101715.91;;;16.59;77.34
14134;BME280;7147;59.364;18.018;2022-09-09T10:00:54;101723.81;;;16.36;78.21
14134;BME280;7147;59.364;18.018;2022-09-09T10:03:26;101716.97;;;16.45;78.96
14134;BME280;7147;59.364;18.018;2022-09-09T10:05:54;101708.25;;;16.35;78.22
14134;BME280;7147;59.364;18.018;2022-09-09T10:08:22;101718.06;;;16.37;78.34
14134;BME280;7147;59.364;18.018;2022-09-09T10:11:12;101714.38;;;16.56;78.81
14134;BME280;7147;59.364;18.018;2022-09-09T10:13:53;101712.88;;;16.67;79.31
14134;BME280;7147;59.364;18.018;2022-09-09T10:16:38;101707.38;;;16.92;79.14
14134;BME280;7147;59.364;18.018;2022-09-09T10:19:12;101714.03;;;17.28;78.44
14134;BME280;7147;59.364;18.018;2022-09-09T10:22:02;101703.13;;;16.89;77.68
14134;BME280;7147;59.364;18.018;2022-09-09T10:25:11;101708.25;;;16.92;77.04
14134;BME280;7147;59.364;18.018;2022-09-09T10:27:51;101698.84;;;16.93;76.44
14134;BME280;7147;59.364;18.018;2022-09-09T10:30:24;101686.84;;;16.99;74.73
14134;BME280;7147;59.364;18.018;2022-09-09T10:33:02;101704.34;;;17.06;73.56
14134;BME280;7147;59.364;18.018;2022-09-09T10:35:34;101715.00;;;17.09;73.61
14134;BME280;7147;59.364;18.018;2022-09-09T10:38:20;101720.50;;;17.22;73.22
14134;BME280;7147;59.364;18.018;2022-09-09T10:41:05;101708.91;;;17.25;72.49
14134;BME280;7147;59.364;18.018;2022-09-09T10:43:49;101701.81;;;16.98;73.50
14134;BME280;7147;59.364;18.018;2022-09-09T10:46:26;101711.97;;;17.17;73.95
14134;BME280;7147;59.364;18.018;2022-09-09T10:49:05;101711.03;;;16.92;76.09
14134;BME280;7147;59.364;18.018;2022-09-09T10:51:42;101712.25;;;16.52;77.95
14134;BME280;7147;59.364;18.018;2022-09-09T10:54:28;101701.66;;;16.29;78.13
14134;BME280;7147;59.364;18.018;2022-09-09T10:57:03;101700.13;;;16.33;77.85
14134;BME280;7147;59.364;18.018;2022-09-09T10:59:34;101693.88;;;16.57;77.54
14134;BME280;7147;59.364;18.018;2022-09-09T11:02:10;101704.97;;;16.51;76.95
14134;BME280;7147;59.364;18.018;2022-09-09T11:04:44;101704.09;;;16.70;76.54
14134;BME280;7147;59.364;18.018;2022-09-09T11:07:19;101696.78;;;16.82;75.87
14134;BME280;7147;59.364;18.018;2022-09-09T11:09:54;101693.22;;;17.06;75.28
14134;BME280;7147;59.364;18.018;2022-09-09T11:12:25;101704.09;;;17.08;73.41
14134;BME280;7147;59.364;18.018;2022-09-09T11:14:59;101701.25;;;17.21;73.74
14134;BME280;7147;59.364;18.018;2022-09-09T11:17:36;101700.47;;;17.07;74.40
14134;BME280;7147;59.364;18.018;2022-09-09T11:20:06;101693.00;;;17.01;74.17
14134;BME280;7147;59.364;18.018;2022-09-09T11:22:44;101682.28;;;17.11;74.86
14134;BME280;7147;59.364;18.018;2022-09-09T11:25:15;101704.28;;;17.13;74.89
14134;BME280;7147;59.364;18.018;2022-09-09T11:27:54;101695.50;;;17.16;73.23
14134;BME280;7147;59.364;18.018;2022-09-09T11:30:27;101700.56;;;16.94;73.20
14134;BME280;7147;59.364;18.018;2022-09-09T11:33:18;101689.28;;;16.83;74.45
14134;BME280;7147;59.364;18.018;2022-09-09T11:36:05;101692.28;;;16.81;75.62
14134;BME280;7147;59.364;18.018;2022-09-09T11:38:44;101686.72;;;16.81;75.07
14134;BME280;7147;59.364;18.018;2022-09-09T11:41:13;101689.00;;;16.97;75.20
14134;BME280;7147;59.364;18.018;2022-09-09T11:43:43;101674.44;;;16.95;75.70
14134;BME280;7147;59.364;18.018;2022-09-09T11:46:12;101690.53;;;16.87;76.59
14134;BME280;7147;59.364;18.018;2022-09-09T11:48:43;101682.00;;;16.88;76.87
14134;BME280;7147;59.364;18.018;2022-09-09T11:51:13;101681.41;;;17.11;76.96
14134;BME280;7147;59.364;18.018;2022-09-09T11:53:50;101674.63;;;17.32;76.60
14134;BME280;7147;59.364;18.018;2022-09-09T11:56:25;101673.03;;;17.17;76.64
14134;BME280;7147;59.364;18.018;2022-09-09T11:58:59;101676.91;;;17.10;77.34
14134;BME280;7147;59.364;18.018;2022-09-09T12:01:37;101676.66;;;17.18;77.75
14134;BME280;7147;59.364;18.018;2022-09-09T12:04:17;101670.03;;;17.12;77.83
14134;BME280;7147;59.364;18.018;2022-09-09T12:06:51;101678.47;;;17.30;77.54
14134;BME280;7147;59.364;18.018;2022-09-09T12:09:23;101667.59;;;17.29;76.54
14134;BME280;7147;59.364;18.018;2022-09-09T12:11:51;101681.09;;;17.25;75.91
14134;BME280;7147;59.364;18.018;2022-09-09T12:14:23;101669.13;;;17.25;76.72
14134;BME280;7147;59.364;18.018;2022-09-09T12:17:10;101678.66;;;17.04;77.61
14134;BME280;7147;59.364;18.018;2022-09-09T12:19:45;101667.50;;;16.80;79.00
14134;BME280;7147;59.364;18.018;2022-09-09T12:22:19;101669.84;;;16.83;79.29
14134;BME280;7147;59.364;18.018;2022-09-09T12:24:49;101674.41;;;17.02;79.24
14134;BME280;7147;59.364;18.018;2022-09-09T12:27:23;101664.28;;;16.83;78.25
14134;BME280;7147;59.364;18.018;2022-09-09T12:29:56;101666.25;;;16.69;79.71
14134;BME280;7147;59.364;18.018;2022-09-09T12:32:27;101669.59;;;16.84;79.78
14134;BME280;7147;59.364;18.018;2022-09-09T12:34:59;101662.09;;;16.91;79.80
14134;BME280;7147;59.364;18.018;2022-09-09T12:37:29;101670.88;;;16.88;79.83
14134;BME280;7147;59.364;18.018;2022-09-09T12:40:00;101665.47;;;16.93;80.25
14134;BME280;7147;59.364;18.018;2022-09-09T12:42:27;101671.44;;;16.97;81.19
14134;BME280;7147;59.364;18.018;2022-09-09T12:44:56;101667.53;;;17.04;81.29
14134;BME280;7147;59.364;18.018;2022-09-09T12:47:30;101667.50;;;17.11;81.67
14134;BME280;7147;59.364;18.018;2022-09-09T12:50:02;101658.44;;;17.22;80.70
14134;BME280;7147;59.364;18.018;2022-09-09T12:52:32;101655.84;;;17.27;79.46
14134;BME280;7147;59.364;18.018;2022-09-09T12:55:02;101652.38;;;17.32;78.97
14134;BME280;7147;59.364;18.018;2022-09-09T12:57:34;101646.00;;;17.24;79.17
14134;BME280;7147;59.364;18.018;2022-09-09T13:00:08;101651.94;;;17.35;78.72
14134;BME280;7147;59.364;18.018;2022-09-09T13:02:47;101657.78;;;17.51;78.27
14134;BME280;7147;59.364;18.018;2022-09-09T13:05:19;101660.56;;;17.26;78.56
14134;BME280;7147;59.364;18.018;2022-09-09T13:07:47;101661.63;;;16.94;79.59